sensor_id;sensor_type;location;lat;lon;timestamp;P1;durP1;ratioP1;P2;durP2;ratioP2
68484;SDS011;55472;50.060;21.960;2022-11-15T00:00:54;22.20;;;7.97;;
68484;SDS011;55472;50.060;21.960;2022-11-15T00:03:22;23.50;;;8.18;;
68484;SDS011;55472;50.060;21.960;2022-11-15T00:05:51;21.87;;;7.50;;
68484;SDS011;55472;50.060;21.960;2022-11-15T00:08:17;26.13;;;8.88;;
68484;SDS011;55472;50.060;21.960;2022-11-15T00:10:46;25.52;;;8.27;;
68484;SDS011;55472;50.060;21.960;2022-11-15T00:13:22;21.92;;;7.90;;
68484;SDS011;55472;50.060;21.960;2022-11-15T00:15:49;21.40;;;7.18;;
68484;SDS011;55472;50.060;21.960;2022-11-15T00:18:15;26.00;;;8.67;;
68484;SDS011;55472;50.060;21.960;2022-11-15T00:20:42;30.00;;;8.43;;
68484;SDS011;55472;50.060;21.960;2022-11-15T00:23:08;28.67;;;9.48;;
68484;SDS011;55472;50.060;21.960;2022-11-15T00:25:35;25.67;;;9.27;;
68484;SDS011;55472;50.060;21.960;2022-11-15T00:28:01;28.97;;;9.90;;
68484;SDS011;55472;50.060;21.960;2022-11-15T00:30:28;32.10;;;10.77;;
68484;SDS011;55472;50.060;21.960;2022-11-15T00:32:54;35.40;;;10.88;;
68484;SDS011;55472;50.060;21.960;2022-11-15T00:35:20;33.30;;;12.68;;
68484;SDS011;55472;50.060;21.960;2022-11-15T00:37:46;37.47;;;13.40;;
68484;SDS011;55472;50.060;21.960;2022-11-15T00:40:13;33.58;;;11.63;;
68484;SDS011;55472;50.060;21.960;2022-11-15T00:42:40;32.38;;;11.55;;
68484;SDS011;55472;50.060;21.960;2022-11-15T00:45:07;27.58;;;10.27;;
68484;SDS011;55472;50.060;21.960;2022-11-15T00:47:34;26.42;;;10.07;;
68484;SDS011;55472;50.060;21.960;2022-11-15T00:50:00;29.53;;;9.83;;
68484;SDS011;55472;50.060;21.960;2022-11-15T00:52:26;30.38;;;9.52;;
68484;SDS011;55472;50.060;21.960;2022-11-15T00:54:52;29.02;;;9.85;;
68484;SDS011;55472;50.060;21.960;2022-11-15T00:57:18;22.37;;;8.17;;
68484;SDS011;55472;50.060;21.960;2022-11-15T00:59:44;29.17;;;8.30;;
68484;SDS011;55472;50.060;21.960;2022-11-15T01:02:10;22.05;;;8.88;;
68484;SDS011;55472;50.060;21.960;2022-11-15T01:04:36;33.35;;;10.40;;
68484;SDS011;55472;50.060;21.960;2022-11-15T01:07:02;32.37;;;10.17;;
68484;SDS011;55472;50.060;21.960;2022-11-15T01:09:28;30.30;;;11.05;;
68484;SDS011;55472;50.060;21.960;2022-11-15T01:11:54;30.17;;;10.80;;
68484;SDS011;55472;50.060;21.960;2022-11-15T01:14:20;33.23;;;10.83;;
68484;SDS011;55472;50.060;21.960;2022-11-15T01:16:46;27.25;;;9.73;;
68484;SDS011;55472;50.060;21.960;2022-11-15T01:19:13;30.75;;;11.75;;
68484;SDS011;55472;50.060;21.960;2022-11-15T01:21:38;31.35;;;12.00;;
68484;SDS011;55472;50.060;21.960;2022-11-15T01:24:05;29.37;;;10.20;;
68484;SDS011;55472;50.060;21.960;2022-11-15T01:26:31;24.85;;;9.52;;
68484;SDS011;55472;50.060;21.960;2022-11-15T01:28:57;33.65;;;10.02;;
68484;SDS011;55472;50.060;21.960;2022-11-15T01:31:23;33.10;;;10.32;;
68484;SDS011;55472;50.060;21.960;2022-11-15T01:33:49;26.13;;;9.03;;
68484;SDS011;55472;50.060;21.960;2022-11-15T01:36:20;28.67;;;9.32;;
68484;SDS011;55472;50.060;21.960;2022-11-15T01:38:52;22.45;;;8.18;;
68484;SDS011;55472;50.060;21.960;2022-11-15T01:41:23;23.90;;;8.23;;
68484;SDS011;55472;50.060;21.960;2022-11-15T01:43:56;24.70;;;7.63;;
68484;SDS011;55472;50.060;21.960;2022-11-15T01:46:54;25.87;;;8.07;;
68484;SDS011;55472;50.060;21.960;2022-11-15T01:49:21;26.15;;;8.70;;
68484;SDS011;55472;50.060;21.960;2022-11-15T01:51:48;26.75;;;9.20;;
68484;SDS011;55472;50.060;21.960;2022-11-15T01:54:15;23.23;;;8.27;;
68484;SDS011;55472;50.060;21.960;2022-11-15T01:56:45;22.95;;;8.60;;
68484;SDS011;55472;50.060;21.960;2022-11-15T01:59:17;27.40;;;9.30;;
68484;SDS011;55472;50.060;21.960;2022-11-15T02:01:44;26.23;;;8.30;;
68484;SDS011;55472;50.060;21.960;2022-11-15T02:04:12;23.10;;;7.97;;
68484;SDS011;55472;50.060;21.960;2022-11-15T02:06:42;31.77;;;8.82;;
68484;SDS011;55472;50.060;21.960;2022-11-15T02:09:09;25.52;;;8.38;;
68484;SDS011;55472;50.060;21.960;2022-11-15T02:11:36;22.57;;;7.17;;
68484;SDS011;55472;50.060;21.960;2022-11-15T02:14:03;25.35;;;8.65;;
68484;SDS011;55472;50.060;21.960;2022-11-15T02:25:03;21.27;;;6.87;;
68484;SDS011;55472;50.060;21.960;2022-11-15T02:30:53;25.15;;;7.35;;
68484;SDS011;55472;50.060;21.960;2022-11-15T02:39:51;28.23;;;9.37;;
68484;SDS011;55472;50.060;21.960;2022-11-15T02:42:44;28.95;;;9.30;;
68484;SDS011;55472;50.060;21.960;2022-11-15T02:45:36;26.38;;;10.15;;
68484;SDS011;55472;50.060;21.960;2022-11-15T02:48:09;33.75;;;10.38;;
68484;SDS011;55472;50.060;21.960;2022-11-15T02:50:37;34.28;;;10.20;;
68484;SDS011;55472;50.060;21.960;2022-11-15T02:53:04;27.63;;;9.10;;
68484;SDS011;55472;50.060;21.960;2022-11-15T02:55:31;35.70;;;10.75;;
68484;SDS011;55472;50.060;21.960;2022-11-15T03:00:56;28.27;;;10.25;;
68484;SDS011;55472;50.060;21.960;2022-11-15T03:04:02;25.37;;;8.80;;
68484;SDS011;55472;50.060;21.960;2022-11-15T03:06:53;24.52;;;8.80;;
68484;SDS011;55472;50.060;21.960;2022-11-15T03:10:20;25.27;;;8.68;;
68484;SDS011;55472;50.060;21.960;2022-11-15T03:12:40;43.85;;;12.15;;
68484;SDS011;55472;50.060;21.960;2022-11-15T03:15:29;33.75;;;11.55;;
68484;SDS011;55472;50.060;21.960;2022-11-15T03:18:26;29.57;;;10.60;;
68484;SDS011;55472;50.060;21.960;2022-11-15T03:21:03;32.58;;;9.43;;
68484;SDS011;55472;50.060;21.960;2022-11-15T03:23:33;30.52;;;10.00;;
68484;SDS011;55472;50.060;21.960;2022-11-15T03:26:02;30.35;;;9.23;;
68484;SDS011;55472;50.060;21.960;2022-11-15T03:29:08;29.92;;;9.73;;
68484;SDS011;55472;50.060;21.960;2022-11-15T03:31:32;30.13;;;10.10;;
68484;SDS011;55472;50.060;21.960;2022-11-15T03:36:56;29.80;;;9.93;;
68484;SDS011;55472;50.060;21.960;2022-11-15T03:39:22;42.13;;;10.07;;
68484;SDS011;55472;50.060;21.960;2022-11-15T03:47:34;13.55;;;4.60;;
68484;SDS011;55472;50.060;21.960;2022-11-15T03:50:08;11.52;;;4.22;;
68484;SDS011;55472;50.060;21.960;2022-11-15T03:52:39;11.70;;;4.20;;
68484;SDS011;55472;50.060;21.960;2022-11-15T03:55:09;16.10;;;5.32;;
68484;SDS011;55472;50.060;21.960;2022-11-15T03:57:38;13.77;;;4.40;;
68484;SDS011;55472;50.060;21.960;2022-11-15T04:00:05;13.52;;;5.28;;
68484;SDS011;55472;50.060;21.960;2022-11-15T04:02:31;18.42;;;5.50;;
68484;SDS011;55472;50.060;21.960;2022-11-15T04:04:58;23.88;;;8.25;;
68484;SDS011;55472;50.060;21.960;2022-11-15T04:07:23;25.43;;;8.73;;
68484;SDS011;55472;50.060;21.960;2022-11-15T04:09:50;18.77;;;6.50;;
68484;SDS011;55472;50.060;21.960;2022-11-15T04:12:34;24.70;;;8.30;;
68484;SDS011;55472;50.060;21.960;2022-11-15T04:20:10;23.87;;;8.10;;
68484;SDS011;55472;50.060;21.960;2022-11-15T04:23:01;24.88;;;7.13;;
68484;SDS011;55472;50.060;21.960;2022-11-15T04:25:52;20.05;;;7.15;;
68484;SDS011;55472;50.060;21.960;2022-11-15T04:28:20;26.27;;;8.32;;
68484;SDS011;55472;50.060;21.960;2022-11-15T04:30:47;28.17;;;8.90;;
68484;SDS011;55472;50.060;21.960;2022-11-15T04:33:13;44.20;;;12.50;;
68484;SDS011;55472;50.060;21.960;2022-11-15T04:35:40;44.42;;;14.02;;
68484;SDS011;55472;50.060;21.960;2022-11-15T04:38:07;52.15;;;15.80;;
68484;SDS011;55472;50.060;21.960;2022-11-15T04:40:36;64.47;;;21.85;;
68484;SDS011;55472;50.060;21.960;2022-11-15T04:43:03;37.57;;;14.47;;
68484;SDS011;55472;50.060;21.960;2022-11-15T04:45:29;30.50;;;10.68;;
68484;SDS011;55472;50.060;21.960;2022-11-15T04:47:55;42.72;;;16.13;;
68484;SDS011;55472;50.060;21.960;2022-11-15T04:50:22;42.95;;;14.63;;
68484;SDS011;55472;50.060;21.960;2022-11-15T04:52:51;25.40;;;8.02;;
68484;SDS011;55472;50.060;21.960;2022-11-15T04:55:19;17.47;;;5.87;;
68484;SDS011;55472;50.060;21.960;2022-11-15T04:57:45;12.77;;;4.43;;
68484;SDS011;55472;50.060;21.960;2022-11-15T05:00:12;13.45;;;4.90;;
68484;SDS011;55472;50.060;21.960;2022-11-15T05:02:41;12.18;;;3.55;;
68484;SDS011;55472;50.060;21.960;2022-11-15T05:05:25;10.20;;;3.28;;
68484;SDS011;55472;50.060;21.960;2022-11-15T05:07:51;13.50;;;4.20;;
68484;SDS011;55472;50.060;21.960;2022-11-15T05:10:17;13.00;;;4.72;;
68484;SDS011;55472;50.060;21.960;2022-11-15T05:12:43;16.45;;;4.38;;
68484;SDS011;55472;50.060;21.960;2022-11-15T05:15:09;15.93;;;5.30;;
68484;SDS011;55472;50.060;21.960;2022-11-15T05:17:35;17.70;;;5.17;;
68484;SDS011;55472;50.060;21.960;2022-11-15T05:20:01;18.42;;;6.10;;
68484;SDS011;55472;50.060;21.960;2022-11-15T05:22:27;22.90;;;6.78;;
68484;SDS011;55472;50.060;21.960;2022-11-15T05:24:53;23.83;;;7.95;;
68484;SDS011;55472;50.060;21.960;2022-11-15T05:27:19;25.17;;;8.70;;
68484;SDS011;55472;50.060;21.960;2022-11-15T05:29:45;27.02;;;8.00;;
68484;SDS011;55472;50.060;21.960;2022-11-15T05:32:11;41.42;;;13.55;;
68484;SDS011;55472;50.060;21.960;2022-11-15T05:34:38;35.20;;;12.37;;
68484;SDS011;55472;50.060;21.960;2022-11-15T05:37:04;32.35;;;11.40;;
68484;SDS011;55472;50.060;21.960;2022-11-15T05:39:31;32.60;;;10.85;;
68484;SDS011;55472;50.060;21.960;2022-11-15T05:41:59;33.42;;;11.65;;
68484;SDS011;55472;50.060;21.960;2022-11-15T05:44:32;30.90;;;9.53;;
68484;SDS011;55472;50.060;21.960;2022-11-15T05:47:01;29.05;;;10.25;;
68484;SDS011;55472;50.060;21.960;2022-11-15T05:49:30;46.28;;;12.85;;
68484;SDS011;55472;50.060;21.960;2022-11-15T05:51:59;27.63;;;8.40;;
68484;SDS011;55472;50.060;21.960;2022-11-15T05:54:26;25.35;;;8.02;;
68484;SDS011;55472;50.060;21.960;2022-11-15T05:56:52;25.93;;;7.60;;
68484;SDS011;55472;50.060;21.960;2022-11-15T05:59:19;29.45;;;7.80;;
68484;SDS011;55472;50.060;21.960;2022-11-15T06:01:45;51.00;;;12.10;;
68484;SDS011;55472;50.060;21.960;2022-11-15T06:04:11;36.95;;;11.18;;
68484;SDS011;55472;50.060;21.960;2022-11-15T06:06:37;26.80;;;8.90;;
68484;SDS011;55472;50.060;21.960;2022-11-15T06:09:03;52.05;;;14.43;;
68484;SDS011;55472;50.060;21.960;2022-11-15T06:11:29;62.15;;;15.73;;
68484;SDS011;55472;50.060;21.960;2022-11-15T06:13:56;47.97;;;13.00;;
68484;SDS011;55472;50.060;21.960;2022-11-15T06:16:21;41.80;;;10.05;;
68484;SDS011;55472;50.060;21.960;2022-11-15T06:18:48;26.50;;;8.23;;
68484;SDS011;55472;50.060;21.960;2022-11-15T06:21:13;23.80;;;6.55;;
68484;SDS011;55472;50.060;21.960;2022-11-15T06:23:40;15.80;;;4.45;;
68484;SDS011;55472;50.060;21.960;2022-11-15T06:26:05;14.13;;;4.67;;
68484;SDS011;55472;50.060;21.960;2022-11-15T06:28:32;11.63;;;4.13;;
68484;SDS011;55472;50.060;21.960;2022-11-15T06:31:02;13.75;;;4.47;;
68484;SDS011;55472;50.060;21.960;2022-11-15T06:33:33;10.95;;;3.75;;
68484;SDS011;55472;50.060;21.960;2022-11-15T06:36:02;23.00;;;7.28;;
68484;SDS011;55472;50.060;21.960;2022-11-15T06:38:30;23.47;;;7.47;;
68484;SDS011;55472;50.060;21.960;2022-11-15T06:41:03;24.95;;;8.20;;
68484;SDS011;55472;50.060;21.960;2022-11-15T06:43:31;23.95;;;6.55;;
68484;SDS011;55472;50.060;21.960;2022-11-15T06:45:58;24.25;;;6.80;;
68484;SDS011;55472;50.060;21.960;2022-11-15T06:48:25;22.45;;;7.18;;
68484;SDS011;55472;50.060;21.960;2022-11-15T06:50:56;22.63;;;7.00;;
68484;SDS011;55472;50.060;21.960;2022-11-15T06:53:25;21.95;;;7.32;;
68484;SDS011;55472;50.060;21.960;2022-11-15T06:55:51;19.45;;;7.32;;
68484;SDS011;55472;50.060;21.960;2022-11-15T06:58:18;20.23;;;6.90;;
68484;SDS011;55472;50.060;21.960;2022-11-15T07:00:46;15.80;;;5.47;;
68484;SDS011;55472;50.060;21.960;2022-11-15T07:03:12;17.20;;;5.60;;
68484;SDS011;55472;50.060;21.960;2022-11-15T07:05:38;15.30;;;5.80;;
68484;SDS011;55472;50.060;21.960;2022-11-15T07:08:04;16.98;;;6.20;;
68484;SDS011;55472;50.060;21.960;2022-11-15T07:10:30;13.82;;;5.10;;
68484;SDS011;55472;50.060;21.960;2022-11-15T07:12:56;12.70;;;5.47;;
68484;SDS011;55472;50.060;21.960;2022-11-15T07:15:23;10.43;;;5.00;;
68484;SDS011;55472;50.060;21.960;2022-11-15T07:17:51;11.48;;;4.65;;
68484;SDS011;55472;50.060;21.960;2022-11-15T07:20:17;10.85;;;4.75;;
68484;SDS011;55472;50.060;21.960;2022-11-15T07:22:44;12.10;;;4.83;;
68484;SDS011;55472;50.060;21.960;2022-11-15T07:25:10;11.10;;;3.97;;
68484;SDS011;55472;50.060;21.960;2022-11-15T07:27:37;10.82;;;4.35;;
68484;SDS011;55472;50.060;21.960;2022-11-15T07:30:03;12.07;;;4.80;;
68484;SDS011;55472;50.060;21.960;2022-11-15T07:32:30;12.52;;;5.00;;
68484;SDS011;55472;50.060;21.960;2022-11-15T07:34:56;12.10;;;5.50;;
68484;SDS011;55472;50.060;21.960;2022-11-15T07:37:22;12.32;;;5.07;;
68484;SDS011;55472;50.060;21.960;2022-11-15T07:39:48;14.55;;;4.88;;
68484;SDS011;55472;50.060;21.960;2022-11-15T07:42:14;15.23;;;5.53;;
68484;SDS011;55472;50.060;21.960;2022-11-15T07:44:59;16.50;;;5.97;;
68484;SDS011;55472;50.060;21.960;2022-11-15T07:47:25;15.07;;;5.60;;
68484;SDS011;55472;50.060;21.960;2022-11-15T07:49:53;17.17;;;6.28;;
68484;SDS011;55472;50.060;21.960;2022-11-15T07:52:19;15.77;;;5.72;;
68484;SDS011;55472;50.060;21.960;2022-11-15T07:54:45;13.32;;;5.82;;
68484;SDS011;55472;50.060;21.960;2022-11-15T07:57:14;13.77;;;5.57;;
68484;SDS011;55472;50.060;21.960;2022-11-15T07:59:40;16.67;;;5.25;;
68484;SDS011;55472;50.060;21.960;2022-11-15T08:02:08;11.70;;;5.00;;
68484;SDS011;55472;50.060;21.960;2022-11-15T08:04:34;13.80;;;5.82;;
68484;SDS011;55472;50.060;21.960;2022-11-15T08:07:01;11.32;;;5.53;;
68484;SDS011;55472;50.060;21.960;2022-11-15T08:09:26;12.87;;;5.93;;
68484;SDS011;55472;50.060;21.960;2022-11-15T08:11:53;14.88;;;6.85;;
68484;SDS011;55472;50.060;21.960;2022-11-15T08:14:18;15.65;;;6.25;;
68484;SDS011;55472;50.060;21.960;2022-11-15T08:16:47;16.30;;;6.40;;
68484;SDS011;55472;50.060;21.960;2022-11-15T08:19:13;16.17;;;6.63;;
68484;SDS011;55472;50.060;21.960;2022-11-15T08:21:39;13.30;;;5.55;;
68484;SDS011;55472;50.060;21.960;2022-11-15T08:24:05;11.80;;;5.93;;
68484;SDS011;55472;50.060;21.960;2022-11-15T08:26:35;17.88;;;6.00;;
68484;SDS011;55472;50.060;21.960;2022-11-15T08:29:01;13.43;;;6.15;;
68484;SDS011;55472;50.060;21.960;2022-11-15T08:31:27;12.98;;;5.82;;
68484;SDS011;55472;50.060;21.960;2022-11-15T08:33:53;14.57;;;6.40;;
68484;SDS011;55472;50.060;21.960;2022-11-15T08:36:19;13.90;;;6.30;;
68484;SDS011;55472;50.060;21.960;2022-11-15T08:38:45;11.82;;;5.78;;
68484;SDS011;55472;50.060;21.960;2022-11-15T08:41:13;12.27;;;6.47;;
68484;SDS011;55472;50.060;21.960;2022-11-15T08:43:50;12.85;;;6.50;;
68484;SDS011;55472;50.060;21.960;2022-11-15T08:46:16;10.70;;;6.17;;
68484;SDS011;55472;50.060;21.960;2022-11-15T08:48:43;12.43;;;6.20;;
68484;SDS011;55472;50.060;21.960;2022-11-15T08:51:09;12.05;;;6.20;;
68484;SDS011;55472;50.060;21.960;2022-11-15T08:53:35;11.87;;;6.30;;
68484;SDS011;55472;50.060;21.960;2022-11-15T08:56:01;12.43;;;6.60;;
68484;SDS011;55472;50.060;21.960;2022-11-15T08:58:27;10.55;;;5.75;;
68484;SDS011;55472;50.060;21.960;2022-11-15T09:00:54;11.43;;;6.55;;
68484;SDS011;55472;50.060;21.960;2022-11-15T09:03:20;9.90;;;6.10;;
68484;SDS011;55472;50.060;21.960;2022-11-15T09:05:46;9.85;;;5.65;;
68484;SDS011;55472;50.060;21.960;2022-11-15T09:08:12;11.45;;;6.07;;
68484;SDS011;55472;50.060;21.960;2022-11-15T09:10:38;12.13;;;6.00;;
68484;SDS011;55472;50.060;21.960;2022-11-15T09:13:04;11.43;;;6.10;;
68484;SDS011;55472;50.060;21.960;2022-11-15T09:15:30;12.93;;;6.17;;
68484;SDS011;55472;50.060;21.960;2022-11-15T09:17:59;11.20;;;6.30;;
68484;SDS011;55472;50.060;21.960;2022-11-15T09:20:25;12.32;;;6.30;;
68484;SDS011;55472;50.060;21.960;2022-11-15T09:22:51;10.65;;;6.20;;
68484;SDS011;55472;50.060;21.960;2022-11-15T09:25:17;13.00;;;6.63;;
68484;SDS011;55472;50.060;21.960;2022-11-15T09:27:43;13.40;;;6.13;;
68484;SDS011;55472;50.060;21.960;2022-11-15T09:30:09;14.32;;;7.20;;
68484;SDS011;55472;50.060;21.960;2022-11-15T09:32:36;13.05;;;6.60;;
68484;SDS011;55472;50.060;21.960;2022-11-15T09:35:02;13.30;;;6.70;;
68484;SDS011;55472;50.060;21.960;2022-11-15T09:37:28;18.35;;;8.32;;
68484;SDS011;55472;50.060;21.960;2022-11-15T09:39:54;11.13;;;6.07;;
68484;SDS011;55472;50.060;21.960;2022-11-15T09:50:39;11.37;;;6.10;;
68484;SDS011;55472;50.060;21.960;2022-11-15T09:53:20;16.27;;;6.88;;
68484;SDS011;55472;50.060;21.960;2022-11-15T09:56:03;9.43;;;5.18;;
68484;SDS011;55472;50.060;21.960;2022-11-15T09:58:50;8.60;;;4.72;;
68484;SDS011;55472;50.060;21.960;2022-11-15T10:01:34;9.88;;;5.10;;
68484;SDS011;55472;50.060;21.960;2022-11-15T10:04:17;11.00;;;5.03;;
68484;SDS011;55472;50.060;21.960;2022-11-15T10:06:49;11.38;;;5.32;;
68484;SDS011;55472;50.060;21.960;2022-11-15T10:09:28;9.85;;;5.05;;
68484;SDS011;55472;50.060;21.960;2022-11-15T10:12:17;10.75;;;5.38;;
68484;SDS011;55472;50.060;21.960;2022-11-15T10:14:43;9.48;;;5.13;;
68484;SDS011;55472;50.060;21.960;2022-11-15T10:17:19;8.90;;;5.07;;
68484;SDS011;55472;50.060;21.960;2022-11-15T10:23:10;12.70;;;5.75;;
68484;SDS011;55472;50.060;21.960;2022-11-15T10:25:40;17.60;;;7.97;;
68484;SDS011;55472;50.060;21.960;2022-11-15T10:30:59;13.52;;;5.93;;
68484;SDS011;55472;50.060;21.960;2022-11-15T10:33:29;12.97;;;5.77;;
68484;SDS011;55472;50.060;21.960;2022-11-15T10:41:17;10.52;;;5.30;;
68484;SDS011;55472;50.060;21.960;2022-11-15T10:44:08;9.00;;;4.88;;
68484;SDS011;55472;50.060;21.960;2022-11-15T10:46:42;9.93;;;4.78;;
68484;SDS011;55472;50.060;21.960;2022-11-15T10:49:19;12.03;;;5.27;;
68484;SDS011;55472;50.060;21.960;2022-11-15T10:52:00;10.88;;;5.20;;
68484;SDS011;55472;50.060;21.960;2022-11-15T10:54:45;11.25;;;4.90;;
68484;SDS011;55472;50.060;21.960;2022-11-15T10:57:14;9.93;;;4.45;;
68484;SDS011;55472;50.060;21.960;2022-11-15T10:59:51;10.57;;;5.15;;
68484;SDS011;55472;50.060;21.960;2022-11-15T11:05:39;9.13;;;4.25;;
68484;SDS011;55472;50.060;21.960;2022-11-15T11:08:19;10.07;;;5.10;;
68484;SDS011;55472;50.060;21.960;2022-11-15T11:10:53;10.55;;;5.30;;
68484;SDS011;55472;50.060;21.960;2022-11-15T11:13:25;9.52;;;5.15;;
68484;SDS011;55472;50.060;21.960;2022-11-15T11:18:38;10.80;;;4.70;;
68484;SDS011;55472;50.060;21.960;2022-11-15T11:21:18;12.10;;;5.28;;
68484;SDS011;55472;50.060;21.960;2022-11-15T11:42:17;10.93;;;4.97;;
68484;SDS011;55472;50.060;21.960;2022-11-15T11:44:58;11.07;;;5.60;;
68484;SDS011;55472;50.060;21.960;2022-11-15T11:47:56;11.18;;;5.90;;
68484;SDS011;55472;50.060;21.960;2022-11-15T11:50:37;12.20;;;5.82;;
68484;SDS011;55472;50.060;21.960;2022-11-15T11:56:09;10.75;;;5.80;;
68484;SDS011;55472;50.060;21.960;2022-11-15T11:58:49;11.05;;;6.25;;
68484;SDS011;55472;50.060;21.960;2022-11-15T12:01:23;13.27;;;6.10;;
68484;SDS011;55472;50.060;21.960;2022-11-15T12:04:05;11.50;;;6.35;;
68484;SDS011;55472;50.060;21.960;2022-11-15T12:09:36;10.75;;;6.03;;
68484;SDS011;55472;50.060;21.960;2022-11-15T12:12:23;14.35;;;6.05;;
68484;SDS011;55472;50.060;21.960;2022-11-15T12:16:02;10.35;;;4.93;;
68484;SDS011;55472;50.060;21.960;2022-11-15T12:18:31;10.15;;;5.55;;
68484;SDS011;55472;50.060;21.960;2022-11-15T12:21:04;11.75;;;5.72;;
68484;SDS011;55472;50.060;21.960;2022-11-15T12:26:49;12.13;;;6.03;;
68484;SDS011;55472;50.060;21.960;2022-11-15T12:29:34;10.70;;;5.63;;
68484;SDS011;55472;50.060;21.960;2022-11-15T12:32:04;10.20;;;5.53;;
68484;SDS011;55472;50.060;21.960;2022-11-15T12:34:49;8.93;;;5.40;;
68484;SDS011;55472;50.060;21.960;2022-11-15T12:37:32;10.43;;;5.28;;
68484;SDS011;55472;50.060;21.960;2022-11-15T12:43:38;11.23;;;5.70;;
68484;SDS011;55472;50.060;21.960;2022-11-15T12:46:10;11.90;;;5.65;;
68484;SDS011;55472;50.060;21.960;2022-11-15T13:02:50;13.40;;;5.93;;
68484;SDS011;55472;50.060;21.960;2022-11-15T13:05:53;12.32;;;6.07;;
68484;SDS011;55472;50.060;21.960;2022-11-15T13:17:24;12.63;;;5.85;;
68484;SDS011;55472;50.060;21.960;2022-11-15T13:22:52;13.23;;;5.90;;
68484;SDS011;55472;50.060;21.960;2022-11-15T13:31:45;19.92;;;9.52;;
68484;SDS011;55472;50.060;21.960;2022-11-15T13:33:59;18.92;;;9.57;;
68484;SDS011;55472;50.060;21.960;2022-11-15T13:36:38;21.67;;;10.80;;
68484;SDS011;55472;50.060;21.960;2022-11-15T13:39:05;23.25;;;10.20;;
68484;SDS011;55472;50.060;21.960;2022-11-15T13:41:49;21.45;;;10.95;;
68484;SDS011;55472;50.060;21.960;2022-11-15T13:44:27;26.05;;;11.70;;
68484;SDS011;55472;50.060;21.960;2022-11-15T13:47:03;26.10;;;12.30;;
68484;SDS011;55472;50.060;21.960;2022-11-15T13:49:40;27.13;;;12.70;;
68484;SDS011;55472;50.060;21.960;2022-11-15T13:52:07;29.30;;;12.43;;
68484;SDS011;55472;50.060;21.960;2022-11-15T13:54:43;27.60;;;12.77;;
68484;SDS011;55472;50.060;21.960;2022-11-15T13:57:12;24.00;;;13.10;;
68484;SDS011;55472;50.060;21.960;2022-11-15T13:59:51;24.65;;;12.73;;
68484;SDS011;55472;50.060;21.960;2022-11-15T14:02:21;29.40;;;12.70;;
68484;SDS011;55472;50.060;21.960;2022-11-15T14:04:56;24.73;;;12.75;;
68484;SDS011;55472;50.060;21.960;2022-11-15T14:08:00;27.20;;;13.02;;
68484;SDS011;55472;50.060;21.960;2022-11-15T14:10:47;25.80;;;12.40;;
68484;SDS011;55472;50.060;21.960;2022-11-15T14:13:32;24.67;;;11.38;;
68484;SDS011;55472;50.060;21.960;2022-11-15T14:16:59;25.67;;;10.50;;
68484;SDS011;55472;50.060;21.960;2022-11-15T14:19:03;22.67;;;10.07;;
68484;SDS011;55472;50.060;21.960;2022-11-15T14:21:30;20.67;;;10.90;;
68484;SDS011;55472;50.060;21.960;2022-11-15T14:26:44;22.27;;;10.55;;
68484;SDS011;55472;50.060;21.960;2022-11-15T14:29:27;27.38;;;13.80;;
68484;SDS011;55472;50.060;21.960;2022-11-15T14:32:05;30.75;;;14.15;;
68484;SDS011;55472;50.060;21.960;2022-11-15T14:34:47;26.03;;;12.17;;
68484;SDS011;55472;50.060;21.960;2022-11-15T14:37:23;26.83;;;11.65;;
68484;SDS011;55472;50.060;21.960;2022-11-15T14:40:01;26.98;;;12.00;;
68484;SDS011;55472;50.060;21.960;2022-11-15T14:42:29;26.95;;;11.52;;
68484;SDS011;55472;50.060;21.960;2022-11-15T14:44:56;23.42;;;10.95;;
68484;SDS011;55472;50.060;21.960;2022-11-15T14:47:22;28.07;;;11.87;;
68484;SDS011;55472;50.060;21.960;2022-11-15T14:49:48;31.17;;;12.65;;
68484;SDS011;55472;50.060;21.960;2022-11-15T14:52:24;27.17;;;11.30;;
68484;SDS011;55472;50.060;21.960;2022-11-15T14:54:54;26.73;;;11.88;;
68484;SDS011;55472;50.060;21.960;2022-11-15T14:57:23;31.27;;;13.27;;
68484;SDS011;55472;50.060;21.960;2022-11-15T14:59:49;29.05;;;12.35;;
68484;SDS011;55472;50.060;21.960;2022-11-15T15:02:18;29.95;;;13.25;;
68484;SDS011;55472;50.060;21.960;2022-11-15T15:04:47;27.63;;;12.45;;
68484;SDS011;55472;50.060;21.960;2022-11-15T15:07:14;31.65;;;13.23;;
68484;SDS011;55472;50.060;21.960;2022-11-15T15:09:41;27.93;;;12.47;;
68484;SDS011;55472;50.060;21.960;2022-11-15T15:12:17;31.80;;;13.50;;
68484;SDS011;55472;50.060;21.960;2022-11-15T15:14:48;31.85;;;13.02;;
68484;SDS011;55472;50.060;21.960;2022-11-15T15:17:16;29.27;;;13.60;;
68484;SDS011;55472;50.060;21.960;2022-11-15T15:19:43;31.52;;;12.30;;
68484;SDS011;55472;50.060;21.960;2022-11-15T15:22:11;28.20;;;12.30;;
68484;SDS011;55472;50.060;21.960;2022-11-15T15:24:44;31.40;;;11.90;;
68484;SDS011;55472;50.060;21.960;2022-11-15T15:27:11;28.38;;;11.77;;
68484;SDS011;55472;50.060;21.960;2022-11-15T15:29:38;35.75;;;15.02;;
68484;SDS011;55472;50.060;21.960;2022-11-15T15:32:04;31.42;;;13.77;;
68484;SDS011;55472;50.060;21.960;2022-11-15T15:34:31;29.37;;;13.37;;
68484;SDS011;55472;50.060;21.960;2022-11-15T15:37:07;29.02;;;13.20;;
68484;SDS011;55472;50.060;21.960;2022-11-15T15:39:33;34.30;;;13.50;;
68484;SDS011;55472;50.060;21.960;2022-11-15T15:41:59;37.92;;;14.00;;
68484;SDS011;55472;50.060;21.960;2022-11-15T15:44:26;36.07;;;14.53;;
68484;SDS011;55472;50.060;21.960;2022-11-15T15:46:52;35.88;;;14.45;;
68484;SDS011;55472;50.060;21.960;2022-11-15T15:49:18;33.05;;;13.55;;
68484;SDS011;55472;50.060;21.960;2022-11-15T15:51:44;33.97;;;14.07;;
68484;SDS011;55472;50.060;21.960;2022-11-15T15:54:10;35.80;;;13.90;;
68484;SDS011;55472;50.060;21.960;2022-11-15T15:56:35;42.22;;;16.55;;
68484;SDS011;55472;50.060;21.960;2022-11-15T15:59:02;41.72;;;16.38;;
68484;SDS011;55472;50.060;21.960;2022-11-15T16:01:27;48.92;;;18.30;;
68484;SDS011;55472;50.060;21.960;2022-11-15T16:03:54;62.70;;;23.90;;
68484;SDS011;55472;50.060;21.960;2022-11-15T16:06:27;65.88;;;27.45;;
68484;SDS011;55472;50.060;21.960;2022-11-15T16:09:01;55.47;;;23.25;;
68484;SDS011;55472;50.060;21.960;2022-11-15T16:11:28;58.92;;;24.17;;
68484;SDS011;55472;50.060;21.960;2022-11-15T16:13:54;46.90;;;19.53;;
68484;SDS011;55472;50.060;21.960;2022-11-15T16:16:20;68.95;;;26.67;;
68484;SDS011;55472;50.060;21.960;2022-11-15T16:18:47;68.10;;;30.23;;
68484;SDS011;55472;50.060;21.960;2022-11-15T16:21:13;71.60;;;31.13;;
68484;SDS011;55472;50.060;21.960;2022-11-15T16:23:39;76.03;;;30.92;;
68484;SDS011;55472;50.060;21.960;2022-11-15T16:26:17;84.90;;;35.45;;
68484;SDS011;55472;50.060;21.960;2022-11-15T16:28:52;87.97;;;32.13;;
68484;SDS011;55472;50.060;21.960;2022-11-15T16:31:18;78.33;;;32.27;;
68484;SDS011;55472;50.060;21.960;2022-11-15T16:33:47;67.10;;;26.75;;
68484;SDS011;55472;50.060;21.960;2022-11-15T16:36:21;71.13;;;28.65;;
68484;SDS011;55472;50.060;21.960;2022-11-15T16:38:49;103.20;;;35.85;;
68484;SDS011;55472;50.060;21.960;2022-11-15T16:41:15;75.70;;;26.30;;
68484;SDS011;55472;50.060;21.960;2022-11-15T16:43:47;60.30;;;21.53;;
68484;SDS011;55472;50.060;21.960;2022-11-15T16:46:17;52.72;;;20.50;;